WetterOnline ( http://www.wetteronline.de )

Wetter aktuell Mosbach

Aktuelles Wetter: Waibstadt (237m)

6-stündlich | Neueste Meldungen
Ortszeit Temperatur Wetter
Mo, 25.03. 7:00 3.3° C wolkig
Mo, 25.03. 1:00 6.9° C leicht bewölkt
So, 24.03. 19:00 11.6° C bedeckt
So, 24.03. 13:00 13.1° C wolkenlos
So, 24.03. 7:00 2.2° C wolkenlos
So, 24.03. 1:00 7.8° C wolkenlos
Sa, 23.03. 19:00 14.3° C wolkenlos
Sa, 23.03. 13:00 16.6° C wolkenlos
Ortszeit Temperatur Wetter
Mo, 25.03. 8:10 4.9° C bewölkt
Mo, 25.03. 8:00 4.9° C bedeckt
Mo, 25.03. 7:50 4.9° C bedeckt
Mo, 25.03. 7:40 4.9° C bewölkt
Mo, 25.03. 7:30 3.7° C wolkig
Mo, 25.03. 7:20 3.7° C wolkig
Mo, 25.03. 7:00 3.3° C wolkig
Mo, 25.03. 6:30 2.4° C leicht bewölkt
Mo, 25.03. 6:00 2.2° C wolkenlos
Mo, 25.03. 5:30 2.7° C wolkenlos
Mo, 25.03. 5:00 3.4° C wolkenlos
Ortszeit Relative Feuchte Sichtweite
Mo, 25.03. 7:00 75% 30 km
Mo, 25.03. 1:00 60% 35 km
So, 24.03. 19:00 65% 14 km
So, 24.03. 13:00 61% 10 km
So, 24.03. 7:00 98% 1.5 km
So, 24.03. 1:00 78% 6 km
Sa, 23.03. 19:00 53% 13 km
Sa, 23.03. 13:00 43% 21 km
Ortszeit Relative Feuchte Sichtweite
Mo, 25.03. 8:10 72% -
Mo, 25.03. 8:00 72% 29 km
Mo, 25.03. 7:50 72% -
Mo, 25.03. 7:40 72% -
Mo, 25.03. 7:30 75% 30 km
Mo, 25.03. 7:20 75% -
Mo, 25.03. 7:00 75% 30 km
Mo, 25.03. 6:30 78% 30 km
Mo, 25.03. 6:00 78% 30 km
Mo, 25.03. 5:30 74% 30 km
Mo, 25.03. 5:00 70% 30 km
Ortszeit Niederschlagsmenge Niederschlagsart
Mo, 25.03. 7:00 0.0 l/m2 in 12 Std. -
Mo, 25.03. 1:00 0.0 l/m2 in 6 Std. -
So, 24.03. 19:00 0.0 l/m2 in 12 Std. -
So, 24.03. 13:00 0.0 l/m2 in 6 Std. -
So, 24.03. 7:00 0.0 l/m2 in 12 Std. -
So, 24.03. 1:00 0.0 l/m2 in 6 Std. -
Sa, 23.03. 19:00 0.1 l/m2 in 12 Std. Niederschlag
Sa, 23.03. 13:00 0.0 l/m2 in 6 Std. -
Ortszeit Niederschlagsmenge Niederschlagsart
Mo, 25.03. 8:10 keine Meldung -
Mo, 25.03. 8:00 0.0 l/m2 in 1 Std. -
Mo, 25.03. 7:50 keine Meldung -
Mo, 25.03. 7:40 keine Meldung -
Mo, 25.03. 7:30 0.0 l/m2 in 1 Std. -
Mo, 25.03. 7:20 keine Meldung -
Mo, 25.03. 7:00 0.0 l/m2 in 1 Std. -
Mo, 25.03. 6:30 0.0 l/m2 in 1 Std. -
Mo, 25.03. 6:00 0.0 l/m2 in 1 Std. -
Mo, 25.03. 5:30 0.0 l/m2 in 1 Std. -
Mo, 25.03. 5:00 0.0 l/m2 in 1 Std. -
Ortszeit Stärke Spitze Richtung
km/h Bft. km/h Grad Sektor
Mo, 25.03. 7:00 11 2 18 240° SW
Mo, 25.03. 1:00 9 2 22 290° W
So, 24.03. 19:00 9 2 31 320° NW
So, 24.03. 13:00 9 2 19 250° W
So, 24.03. 7:00 6 1 7 40° NO
So, 24.03. 1:00 4 1 22 310° NW
Sa, 23.03. 19:00 11 2 25 290° W
Sa, 23.03. 13:00 13 3 22 250° W
Ortszeit Stärke Spitze Richtung
km/h Bft. km/h Grad Sektor
Mo, 25.03. 8:10 15 3 - 240° SW
Mo, 25.03. 8:00 19 3 28 240° SW
Mo, 25.03. 7:50 19 3 - 240° SW
Mo, 25.03. 7:40 17 3 - 230° SW
Mo, 25.03. 7:30 14 3 22 230° SW
Mo, 25.03. 7:20 14 3 - 230° SW
Mo, 25.03. 7:00 11 2 14 240° SW
Mo, 25.03. 6:30 13 3 15 230° SW
Mo, 25.03. 6:00 11 2 14 230° SW
Mo, 25.03. 5:30 7 2 11 240° SW
Mo, 25.03. 5:00 7 2 18 260° W
Ortszeit Untergrenze Bedeckung Gattung
total tief tief mittel hoch
Mo, 25.03. 7:00 1470 m 7/8 5/8 - - -
Mo, 25.03. 1:00 1500 m 3/8 3/8 - - -
So, 24.03. 19:00 1050 m 8/8 8/8 - - -
So, 24.03. 13:00 - 0/8 0/8 - - -
So, 24.03. 7:00 - 0/8 0/8 - - -
So, 24.03. 1:00 - 0/8 0/8 - - -
Sa, 23.03. 19:00 - 0/8 0/8 - - -
Sa, 23.03. 13:00 - 0/8 0/8 - - -
Ortszeit Bedeckungsgrad in Achtel und Wolkenuntergrenze
Mo, 25.03. 8:10 2(1290m) 6(1800m) 8(6600m)
Mo, 25.03. 8:00 8(6900m) 8(6600m) 8(7200m)
Mo, 25.03. 7:50 8(6900m)
Mo, 25.03. 7:40 7(6900m) 7(7500m)
Mo, 25.03. 7:30 1(1110m) 4(1470m) 7(7200m)
Mo, 25.03. 7:20 1(1110m) 4(1470m) 7(7200m)
Mo, 25.03. 7:00 5(1470m) 7(8400m) 8(8400m)
Mo, 25.03. 6:30 2(1200m) 2(8400m)
Mo, 25.03. 6:00 1(1260m)
Mo, 25.03. 5:30 keine Wolken
Mo, 25.03. 5:00 keine Wolken
Ortszeit Luftdruck NN (hPa) Tendenz (hPa in 3 Std.)
Mo, 25.03. 7:00 1023 - 0,5
Mo, 25.03. 1:00 1023 - 0,6
So, 24.03. 19:00 1023 + 0,6
So, 24.03. 13:00 1024 - 1,4
So, 24.03. 7:00 1027 - 0,2
So, 24.03. 1:00 1027 - 0,7
Sa, 23.03. 19:00 1027 + 0,3
Sa, 23.03. 13:00 1027 - 0,6
Ortszeit Luftdruck NN (hPa) Tendenz (hPa in 3 Std.)
Mo, 25.03. 8:10 1022 keine Meldung
Mo, 25.03. 8:00 1022 - 0,6
Mo, 25.03. 7:50 1022 keine Meldung
Mo, 25.03. 7:40 1022 keine Meldung
Mo, 25.03. 7:30 1022 - 0,5
Mo, 25.03. 7:20 1022 keine Meldung
Mo, 25.03. 7:00 1023 - 0,5
Mo, 25.03. 6:30 1023 - 0,5
Mo, 25.03. 6:00 1023 - 0,5
Mo, 25.03. 5:30 1023 - 0,6
Mo, 25.03. 5:00 1023 - 0,6
Ortszeit Schneehöhe (cm)
Mo, 25.03. 7:00 0
Mo, 25.03. 1:00 0
So, 24.03. 19:00 0
So, 24.03. 13:00 0
So, 24.03. 7:00 0
So, 24.03. 1:00 0
Sa, 23.03. 19:00 0
Sa, 23.03. 13:00 0
Ortszeit Schneehöhe (cm)
Mo, 25.03. 8:10 0
Mo, 25.03. 8:00 0
Mo, 25.03. 7:50 0
Mo, 25.03. 7:40 0
Mo, 25.03. 7:30 0
Mo, 25.03. 7:20 0
Mo, 25.03. 7:00 0
Mo, 25.03. 6:30 0
Mo, 25.03. 6:00 0
Mo, 25.03. 5:30 0
Mo, 25.03. 5:00 0
Link zu dieser Seite / Seite empfehlen

Das Wetter in ...